sensor_id;sensor_type;location;lat;lon;timestamp;P1;durP1;ratioP1;P2;durP2;ratioP2
23506;SDS011;11930;53.076;18.250;2023-04-03T00:00:07;4.10;;;1.13;;
23506;SDS011;11930;53.076;18.250;2023-04-03T00:02:55;5.83;;;1.20;;
23506;SDS011;11930;53.076;18.250;2023-04-03T00:05:21;5.60;;;1.67;;
23506;SDS011;11930;53.076;18.250;2023-04-03T00:07:47;10.20;;;3.10;;
23506;SDS011;11930;53.076;18.250;2023-04-03T00:10:15;6.27;;;1.90;;
23506;SDS011;11930;53.076;18.250;2023-04-03T00:12:41;5.03;;;1.30;;
23506;SDS011;11930;53.076;18.250;2023-04-03T00:15:07;6.87;;;1.57;;
23506;SDS011;11930;53.076;18.250;2023-04-03T00:17:34;6.33;;;1.30;;
23506;SDS011;11930;53.076;18.250;2023-04-03T00:20:00;7.07;;;2.17;;
23506;SDS011;11930;53.076;18.250;2023-04-03T00:22:27;5.10;;;1.30;;
23506;SDS011;11930;53.076;18.250;2023-04-03T00:24:54;8.10;;;1.60;;
23506;SDS011;11930;53.076;18.250;2023-04-03T00:27:20;4.07;;;1.20;;
23506;SDS011;11930;53.076;18.250;2023-04-03T00:29:47;6.23;;;2.03;;
23506;SDS011;11930;53.076;18.250;2023-04-03T00:32:13;7.53;;;1.57;;
23506;SDS011;11930;53.076;18.250;2023-04-03T00:34:39;6.47;;;1.50;;
23506;SDS011;11930;53.076;18.250;2023-04-03T00:37:05;3.47;;;1.10;;
23506;SDS011;11930;53.076;18.250;2023-04-03T00:39:32;4.97;;;1.10;;
23506;SDS011;11930;53.076;18.250;2023-04-03T00:41:58;5.43;;;1.90;;
23506;SDS011;11930;53.076;18.250;2023-04-03T00:46:53;4.80;;;1.00;;
23506;SDS011;11930;53.076;18.250;2023-04-03T00:49:20;3.37;;;1.20;;
23506;SDS011;11930;53.076;18.250;2023-04-03T00:51:46;13.83;;;3.13;;
23506;SDS011;11930;53.076;18.250;2023-04-03T00:54:13;8.10;;;2.83;;
23506;SDS011;11930;53.076;18.250;2023-04-03T00:56:40;9.13;;;3.13;;
23506;SDS011;11930;53.076;18.250;2023-04-03T00:59:10;7.23;;;2.10;;
23506;SDS011;11930;53.076;18.250;2023-04-03T01:01:39;4.90;;;1.93;;
23506;SDS011;11930;53.076;18.250;2023-04-03T01:04:05;7.87;;;1.90;;
23506;SDS011;11930;53.076;18.250;2023-04-03T01:06:52;4.87;;;2.20;;
23506;SDS011;11930;53.076;18.250;2023-04-03T01:09:19;5.80;;;2.53;;
23506;SDS011;11930;53.076;18.250;2023-04-03T01:11:45;11.13;;;3.37;;
23506;SDS011;11930;53.076;18.250;2023-04-03T01:14:12;8.83;;;2.00;;
23506;SDS011;11930;53.076;18.250;2023-04-03T01:16:38;6.33;;;1.83;;
23506;SDS011;11930;53.076;18.250;2023-04-03T01:19:06;5.20;;;2.40;;
23506;SDS011;11930;53.076;18.250;2023-04-03T01:24:34;8.57;;;2.67;;
23506;SDS011;11930;53.076;18.250;2023-04-03T01:27:06;8.00;;;2.17;;
23506;SDS011;11930;53.076;18.250;2023-04-03T01:29:35;5.33;;;1.90;;
23506;SDS011;11930;53.076;18.250;2023-04-03T01:32:02;20.87;;;6.03;;
23506;SDS011;11930;53.076;18.250;2023-04-03T01:34:29;14.77;;;4.10;;
23506;SDS011;11930;53.076;18.250;2023-04-03T01:36:56;11.03;;;2.70;;
23506;SDS011;11930;53.076;18.250;2023-04-03T01:39:22;15.97;;;4.97;;
23506;SDS011;11930;53.076;18.250;2023-04-03T01:41:49;13.77;;;3.70;;
23506;SDS011;11930;53.076;18.250;2023-04-03T01:44:28;32.60;;;6.63;;
23506;SDS011;11930;53.076;18.250;2023-04-03T01:46:54;7.07;;;1.77;;
23506;SDS011;11930;53.076;18.250;2023-04-03T01:49:22;8.67;;;1.80;;
23506;SDS011;11930;53.076;18.250;2023-04-03T01:51:48;10.13;;;2.13;;
23506;SDS011;11930;53.076;18.250;2023-04-03T01:54:14;9.93;;;2.87;;
23506;SDS011;11930;53.076;18.250;2023-04-03T01:56:40;16.10;;;2.90;;
23506;SDS011;11930;53.076;18.250;2023-04-03T01:59:07;15.67;;;3.40;;
23506;SDS011;11930;53.076;18.250;2023-04-03T02:01:33;15.97;;;3.40;;
23506;SDS011;11930;53.076;18.250;2023-04-03T02:04:00;16.80;;;3.77;;
23506;SDS011;11930;53.076;18.250;2023-04-03T02:06:25;6.40;;;1.70;;
23506;SDS011;11930;53.076;18.250;2023-04-03T02:08:52;4.93;;;1.97;;
23506;SDS011;11930;53.076;18.250;2023-04-03T02:11:18;5.20;;;1.30;;
23506;SDS011;11930;53.076;18.250;2023-04-03T02:13:45;12.67;;;2.53;;
23506;SDS011;11930;53.076;18.250;2023-04-03T02:16:12;11.27;;;2.33;;
23506;SDS011;11930;53.076;18.250;2023-04-03T02:18:39;14.20;;;3.03;;
23506;SDS011;11930;53.076;18.250;2023-04-03T02:21:05;13.50;;;2.60;;
23506;SDS011;11930;53.076;18.250;2023-04-03T02:23:31;14.20;;;3.23;;
23506;SDS011;11930;53.076;18.250;2023-04-03T02:26:04;18.27;;;4.27;;
23506;SDS011;11930;53.076;18.250;2023-04-03T02:28:38;24.83;;;5.40;;
23506;SDS011;11930;53.076;18.250;2023-04-03T02:31:05;11.63;;;2.70;;
23506;SDS011;11930;53.076;18.250;2023-04-03T02:33:33;13.30;;;2.10;;
23506;SDS011;11930;53.076;18.250;2023-04-03T02:36:00;9.70;;;2.37;;
23506;SDS011;11930;53.076;18.250;2023-04-03T02:38:26;6.17;;;1.80;;
23506;SDS011;11930;53.076;18.250;2023-04-03T02:40:53;10.87;;;2.00;;
23506;SDS011;11930;53.076;18.250;2023-04-03T02:43:24;9.30;;;2.37;;
23506;SDS011;11930;53.076;18.250;2023-04-03T02:45:50;17.97;;;3.50;;
23506;SDS011;11930;53.076;18.250;2023-04-03T02:48:16;11.80;;;2.80;;
23506;SDS011;11930;53.076;18.250;2023-04-03T02:50:42;12.93;;;3.30;;
23506;SDS011;11930;53.076;18.250;2023-04-03T02:53:09;8.80;;;2.20;;
23506;SDS011;11930;53.076;18.250;2023-04-03T02:55:35;8.53;;;1.87;;
23506;SDS011;11930;53.076;18.250;2023-04-03T02:58:01;8.00;;;2.67;;
23506;SDS011;11930;53.076;18.250;2023-04-03T03:00:29;8.00;;;1.93;;
23506;SDS011;11930;53.076;18.250;2023-04-03T03:02:55;6.23;;;2.10;;
23506;SDS011;11930;53.076;18.250;2023-04-03T03:05:21;6.70;;;1.83;;
23506;SDS011;11930;53.076;18.250;2023-04-03T03:07:47;10.17;;;3.70;;
23506;SDS011;11930;53.076;18.250;2023-04-03T03:10:13;7.23;;;1.97;;
23506;SDS011;11930;53.076;18.250;2023-04-03T03:12:40;7.17;;;1.90;;
23506;SDS011;11930;53.076;18.250;2023-04-03T03:15:06;18.23;;;3.27;;
23506;SDS011;11930;53.076;18.250;2023-04-03T03:17:33;11.10;;;3.07;;
23506;SDS011;11930;53.076;18.250;2023-04-03T03:20:01;10.60;;;1.93;;
23506;SDS011;11930;53.076;18.250;2023-04-03T03:22:28;15.93;;;2.93;;
23506;SDS011;11930;53.076;18.250;2023-04-03T03:24:54;15.00;;;2.97;;
23506;SDS011;11930;53.076;18.250;2023-04-03T03:27:20;15.30;;;2.30;;
23506;SDS011;11930;53.076;18.250;2023-04-03T03:29:46;13.57;;;3.20;;
23506;SDS011;11930;53.076;18.250;2023-04-03T03:32:13;12.63;;;2.90;;
23506;SDS011;11930;53.076;18.250;2023-04-03T03:34:39;17.70;;;4.23;;
23506;SDS011;11930;53.076;18.250;2023-04-03T03:37:05;12.63;;;3.77;;
23506;SDS011;11930;53.076;18.250;2023-04-03T03:39:31;13.80;;;3.43;;
23506;SDS011;11930;53.076;18.250;2023-04-03T03:41:58;12.10;;;3.50;;
23506;SDS011;11930;53.076;18.250;2023-04-03T03:44:24;10.83;;;2.87;;
23506;SDS011;11930;53.076;18.250;2023-04-03T03:46:50;11.30;;;2.17;;
23506;SDS011;11930;53.076;18.250;2023-04-03T03:49:16;13.80;;;2.60;;
23506;SDS011;11930;53.076;18.250;2023-04-03T03:51:42;9.80;;;2.10;;
23506;SDS011;11930;53.076;18.250;2023-04-03T03:54:09;10.70;;;2.80;;
23506;SDS011;11930;53.076;18.250;2023-04-03T03:56:36;12.07;;;3.27;;
23506;SDS011;11930;53.076;18.250;2023-04-03T03:59:02;14.20;;;4.03;;
23506;SDS011;11930;53.076;18.250;2023-04-03T04:01:28;10.93;;;3.27;;
23506;SDS011;11930;53.076;18.250;2023-04-03T04:03:55;19.60;;;4.87;;
23506;SDS011;11930;53.076;18.250;2023-04-03T04:06:25;16.47;;;3.57;;
23506;SDS011;11930;53.076;18.250;2023-04-03T04:08:54;11.50;;;2.57;;
23506;SDS011;11930;53.076;18.250;2023-04-03T04:11:21;11.27;;;2.67;;
23506;SDS011;11930;53.076;18.250;2023-04-03T04:13:48;8.10;;;2.33;;
23506;SDS011;11930;53.076;18.250;2023-04-03T04:16:17;7.97;;;2.33;;
23506;SDS011;11930;53.076;18.250;2023-04-03T04:18:43;8.63;;;2.43;;
23506;SDS011;11930;53.076;18.250;2023-04-03T04:21:09;8.90;;;2.20;;
23506;SDS011;11930;53.076;18.250;2023-04-03T04:23:37;9.83;;;2.10;;
23506;SDS011;11930;53.076;18.250;2023-04-03T04:26:03;5.53;;;2.30;;
23506;SDS011;11930;53.076;18.250;2023-04-03T04:28:33;7.33;;;2.00;;
23506;SDS011;11930;53.076;18.250;2023-04-03T04:31:01;6.97;;;1.90;;
23506;SDS011;11930;53.076;18.250;2023-04-03T04:33:28;15.27;;;4.03;;
23506;SDS011;11930;53.076;18.250;2023-04-03T04:35:56;16.73;;;4.43;;
23506;SDS011;11930;53.076;18.250;2023-04-03T04:38:22;8.37;;;2.60;;
23506;SDS011;11930;53.076;18.250;2023-04-03T04:40:51;5.77;;;1.80;;
23506;SDS011;11930;53.076;18.250;2023-04-03T04:43:18;4.33;;;1.93;;
23506;SDS011;11930;53.076;18.250;2023-04-03T04:45:47;7.83;;;1.80;;
23506;SDS011;11930;53.076;18.250;2023-04-03T04:48:14;7.13;;;2.20;;
23506;SDS011;11930;53.076;18.250;2023-04-03T04:50:40;8.23;;;1.80;;
23506;SDS011;11930;53.076;18.250;2023-04-03T04:53:06;7.00;;;2.13;;
23506;SDS011;11930;53.076;18.250;2023-04-03T04:55:34;8.53;;;2.97;;
23506;SDS011;11930;53.076;18.250;2023-04-03T04:58:00;15.13;;;5.67;;
23506;SDS011;11930;53.076;18.250;2023-04-03T05:00:26;10.80;;;3.40;;
23506;SDS011;11930;53.076;18.250;2023-04-03T05:02:53;10.37;;;2.73;;
23506;SDS011;11930;53.076;18.250;2023-04-03T05:05:19;10.50;;;3.03;;
23506;SDS011;11930;53.076;18.250;2023-04-03T05:07:46;8.03;;;2.30;;
23506;SDS011;11930;53.076;18.250;2023-04-03T05:10:13;8.90;;;3.30;;
23506;SDS011;11930;53.076;18.250;2023-04-03T05:12:41;9.17;;;3.30;;
23506;SDS011;11930;53.076;18.250;2023-04-03T05:15:08;13.83;;;5.07;;
23506;SDS011;11930;53.076;18.250;2023-04-03T05:17:34;9.00;;;3.63;;
23506;SDS011;11930;53.076;18.250;2023-04-03T05:20:02;6.23;;;1.90;;
23506;SDS011;11930;53.076;18.250;2023-04-03T05:22:30;6.37;;;2.10;;
23506;SDS011;11930;53.076;18.250;2023-04-03T05:25:02;6.20;;;2.17;;
23506;SDS011;11930;53.076;18.250;2023-04-03T05:27:29;19.13;;;5.80;;
23506;SDS011;11930;53.076;18.250;2023-04-03T05:29:57;21.67;;;5.57;;
23506;SDS011;11930;53.076;18.250;2023-04-03T05:32:24;11.73;;;2.97;;
23506;SDS011;11930;53.076;18.250;2023-04-03T05:35:03;12.57;;;2.77;;
23506;SDS011;11930;53.076;18.250;2023-04-03T05:37:29;6.30;;;1.53;;
23506;SDS011;11930;53.076;18.250;2023-04-03T05:39:57;4.93;;;1.30;;
23506;SDS011;11930;53.076;18.250;2023-04-03T05:42:23;12.70;;;3.13;;
23506;SDS011;11930;53.076;18.250;2023-04-03T05:44:49;5.50;;;1.83;;
23506;SDS011;11930;53.076;18.250;2023-04-03T05:47:16;8.03;;;1.90;;
23506;SDS011;11930;53.076;18.250;2023-04-03T05:49:43;5.63;;;1.80;;
23506;SDS011;11930;53.076;18.250;2023-04-03T05:52:22;7.57;;;1.90;;
23506;SDS011;11930;53.076;18.250;2023-04-03T05:54:54;6.10;;;1.70;;
23506;SDS011;11930;53.076;18.250;2023-04-03T05:57:24;7.87;;;1.80;;
23506;SDS011;11930;53.076;18.250;2023-04-03T05:59:51;6.07;;;1.60;;
23506;SDS011;11930;53.076;18.250;2023-04-03T06:02:19;4.67;;;1.50;;
23506;SDS011;11930;53.076;18.250;2023-04-03T06:04:48;8.87;;;2.40;;
23506;SDS011;11930;53.076;18.250;2023-04-03T06:07:16;4.97;;;1.37;;
23506;SDS011;11930;53.076;18.250;2023-04-03T06:09:44;7.23;;;2.57;;
23506;SDS011;11930;53.076;18.250;2023-04-03T06:12:11;5.37;;;1.70;;
23506;SDS011;11930;53.076;18.250;2023-04-03T06:14:37;8.83;;;1.97;;
23506;SDS011;11930;53.076;18.250;2023-04-03T06:17:03;5.60;;;1.40;;
23506;SDS011;11930;53.076;18.250;2023-04-03T06:19:30;5.97;;;1.67;;
23506;SDS011;11930;53.076;18.250;2023-04-03T06:21:56;4.80;;;1.53;;
23506;SDS011;11930;53.076;18.250;2023-04-03T06:24:23;5.37;;;1.70;;
23506;SDS011;11930;53.076;18.250;2023-04-03T06:26:50;5.47;;;1.60;;
23506;SDS011;11930;53.076;18.250;2023-04-03T06:29:18;4.53;;;1.40;;
23506;SDS011;11930;53.076;18.250;2023-04-03T06:31:45;3.90;;;1.33;;
23506;SDS011;11930;53.076;18.250;2023-04-03T06:34:12;4.07;;;1.40;;
23506;SDS011;11930;53.076;18.250;2023-04-03T06:36:39;7.13;;;2.07;;
23506;SDS011;11930;53.076;18.250;2023-04-03T06:39:06;6.63;;;2.20;;
23506;SDS011;11930;53.076;18.250;2023-04-03T06:41:32;4.93;;;1.90;;
23506;SDS011;11930;53.076;18.250;2023-04-03T06:43:58;5.07;;;1.57;;
23506;SDS011;11930;53.076;18.250;2023-04-03T06:46:25;6.00;;;1.67;;
23506;SDS011;11930;53.076;18.250;2023-04-03T06:48:52;5.63;;;1.93;;
23506;SDS011;11930;53.076;18.250;2023-04-03T06:51:28;9.17;;;2.60;;
23506;SDS011;11930;53.076;18.250;2023-04-03T06:53:57;5.37;;;2.43;;
23506;SDS011;11930;53.076;18.250;2023-04-03T06:56:24;9.03;;;2.13;;
23506;SDS011;11930;53.076;18.250;2023-04-03T06:58:52;4.67;;;2.00;;
23506;SDS011;11930;53.076;18.250;2023-04-03T07:01:20;7.80;;;1.97;;
23506;SDS011;11930;53.076;18.250;2023-04-03T07:03:47;10.03;;;1.90;;
23506;SDS011;11930;53.076;18.250;2023-04-03T07:06:15;6.70;;;1.47;;
23506;SDS011;11930;53.076;18.250;2023-04-03T07:08:43;7.47;;;1.90;;
23506;SDS011;11930;53.076;18.250;2023-04-03T07:11:11;3.30;;;1.10;;
23506;SDS011;11930;53.076;18.250;2023-04-03T07:13:38;4.50;;;1.33;;
23506;SDS011;11930;53.076;18.250;2023-04-03T07:16:05;4.53;;;1.87;;
23506;SDS011;11930;53.076;18.250;2023-04-03T07:18:33;6.23;;;1.90;;
23506;SDS011;11930;53.076;18.250;2023-04-03T07:20:59;7.13;;;1.80;;
23506;SDS011;11930;53.076;18.250;2023-04-03T07:23:30;5.97;;;1.80;;
23506;SDS011;11930;53.076;18.250;2023-04-03T07:25:57;6.27;;;1.70;;
23506;SDS011;11930;53.076;18.250;2023-04-03T07:28:25;4.03;;;1.50;;
23506;SDS011;11930;53.076;18.250;2023-04-03T07:30:52;3.40;;;1.43;;
23506;SDS011;11930;53.076;18.250;2023-04-03T07:33:21;4.47;;;1.40;;
23506;SDS011;11930;53.076;18.250;2023-04-03T07:35:48;5.00;;;1.50;;
23506;SDS011;11930;53.076;18.250;2023-04-03T07:38:15;4.87;;;1.43;;
23506;SDS011;11930;53.076;18.250;2023-04-03T07:40:45;6.30;;;1.77;;
23506;SDS011;11930;53.076;18.250;2023-04-03T07:43:12;3.60;;;1.60;;
23506;SDS011;11930;53.076;18.250;2023-04-03T07:45:39;4.07;;;1.37;;
23506;SDS011;11930;53.076;18.250;2023-04-03T07:48:05;5.37;;;1.57;;
23506;SDS011;11930;53.076;18.250;2023-04-03T07:50:32;5.87;;;1.53;;
23506;SDS011;11930;53.076;18.250;2023-04-03T07:52:58;2.70;;;1.33;;
23506;SDS011;11930;53.076;18.250;2023-04-03T07:55:25;6.33;;;1.40;;
23506;SDS011;11930;53.076;18.250;2023-04-03T07:57:51;5.00;;;1.27;;
23506;SDS011;11930;53.076;18.250;2023-04-03T08:00:17;4.67;;;1.30;;
23506;SDS011;11930;53.076;18.250;2023-04-03T08:02:45;3.40;;;1.10;;
23506;SDS011;11930;53.076;18.250;2023-04-03T08:05:16;5.23;;;1.77;;
23506;SDS011;11930;53.076;18.250;2023-04-03T08:07:43;2.47;;;1.03;;
23506;SDS011;11930;53.076;18.250;2023-04-03T08:10:10;3.80;;;1.20;;
23506;SDS011;11930;53.076;18.250;2023-04-03T08:12:36;4.87;;;1.33;;
23506;SDS011;11930;53.076;18.250;2023-04-03T08:15:03;5.13;;;1.70;;
23506;SDS011;11930;53.076;18.250;2023-04-03T08:17:29;4.63;;;1.33;;
23506;SDS011;11930;53.076;18.250;2023-04-03T08:19:55;3.60;;;1.00;;
23506;SDS011;11930;53.076;18.250;2023-04-03T08:22:22;4.37;;;1.20;;
23506;SDS011;11930;53.076;18.250;2023-04-03T08:24:47;4.03;;;1.30;;
23506;SDS011;11930;53.076;18.250;2023-04-03T08:27:14;3.57;;;1.60;;
23506;SDS011;11930;53.076;18.250;2023-04-03T08:29:40;4.70;;;1.30;;
23506;SDS011;11930;53.076;18.250;2023-04-03T08:32:06;3.60;;;1.83;;
23506;SDS011;11930;53.076;18.250;2023-04-03T08:34:32;3.93;;;1.13;;
23506;SDS011;11930;53.076;18.250;2023-04-03T08:37:00;4.67;;;1.00;;
23506;SDS011;11930;53.076;18.250;2023-04-03T08:39:27;3.30;;;1.20;;
23506;SDS011;11930;53.076;18.250;2023-04-03T08:41:55;4.77;;;1.33;;
23506;SDS011;11930;53.076;18.250;2023-04-03T08:44:39;4.50;;;1.70;;
23506;SDS011;11930;53.076;18.250;2023-04-03T08:47:24;4.47;;;1.23;;
23506;SDS011;11930;53.076;18.250;2023-04-03T08:50:11;6.07;;;1.97;;
23506;SDS011;11930;53.076;18.250;2023-04-03T08:52:47;3.57;;;1.40;;
23506;SDS011;11930;53.076;18.250;2023-04-03T08:57:54;3.37;;;1.40;;
23506;SDS011;11930;53.076;18.250;2023-04-03T09:03:29;1.83;;;1.00;;
23506;SDS011;11930;53.076;18.250;2023-04-03T09:06:16;4.47;;;1.30;;
23506;SDS011;11930;53.076;18.250;2023-04-03T09:08:59;3.77;;;1.10;;
23506;SDS011;11930;53.076;18.250;2023-04-03T09:11:57;3.57;;;1.23;;
23506;SDS011;11930;53.076;18.250;2023-04-03T09:22:24;3.10;;;1.13;;
23506;SDS011;11930;53.076;18.250;2023-04-03T09:25:13;2.60;;;1.33;;
23506;SDS011;11930;53.076;18.250;2023-04-03T09:27:47;2.93;;;1.27;;
23506;SDS011;11930;53.076;18.250;2023-04-03T09:30:14;4.10;;;1.30;;
23506;SDS011;11930;53.076;18.250;2023-04-03T09:32:41;4.37;;;1.70;;
23506;SDS011;11930;53.076;18.250;2023-04-03T09:37:52;3.20;;;1.43;;
23506;SDS011;11930;53.076;18.250;2023-04-03T09:42:55;2.47;;;1.03;;
23506;SDS011;11930;53.076;18.250;2023-04-03T09:53:40;3.90;;;1.27;;
23506;SDS011;11930;53.076;18.250;2023-04-03T09:56:29;7.13;;;1.80;;
23506;SDS011;11930;53.076;18.250;2023-04-03T10:04:10;1.73;;;0.97;;
23506;SDS011;11930;53.076;18.250;2023-04-03T10:06:40;2.70;;;1.00;;
23506;SDS011;11930;53.076;18.250;2023-04-03T10:09:18;4.73;;;1.20;;
23506;SDS011;11930;53.076;18.250;2023-04-03T10:12:11;3.07;;;0.90;;
23506;SDS011;11930;53.076;18.250;2023-04-03T10:14:59;1.57;;;0.93;;
23506;SDS011;11930;53.076;18.250;2023-04-03T10:27:55;2.57;;;1.23;;
23506;SDS011;11930;53.076;18.250;2023-04-03T10:36:02;3.50;;;1.50;;
23506;SDS011;11930;53.076;18.250;2023-04-03T10:53:34;1.53;;;1.10;;
23506;SDS011;11930;53.076;18.250;2023-04-03T10:56:03;1.87;;;0.90;;
23506;SDS011;11930;53.076;18.250;2023-04-03T10:58:57;3.30;;;1.03;;
23506;SDS011;11930;53.076;18.250;2023-04-03T11:01:33;2.50;;;0.90;;
23506;SDS011;11930;53.076;18.250;2023-04-03T11:04:04;1.80;;;0.90;;
23506;SDS011;11930;53.076;18.250;2023-04-03T11:06:32;2.80;;;1.03;;
23506;SDS011;11930;53.076;18.250;2023-04-03T11:11:51;2.60;;;0.97;;
23506;SDS011;11930;53.076;18.250;2023-04-03T11:14:24;3.17;;;1.00;;
23506;SDS011;11930;53.076;18.250;2023-04-03T11:22:29;3.87;;;1.17;;
23506;SDS011;11930;53.076;18.250;2023-04-03T11:25:43;3.40;;;1.37;;
23506;SDS011;11930;53.076;18.250;2023-04-03T11:28:02;5.73;;;1.20;;
23506;SDS011;11930;53.076;18.250;2023-04-03T11:41:51;4.33;;;1.20;;
23506;SDS011;11930;53.076;18.250;2023-04-03T11:46:59;5.50;;;1.13;;
23506;SDS011;11930;53.076;18.250;2023-04-03T12:29:15;1.77;;;0.83;;
23506;SDS011;11930;53.076;18.250;2023-04-03T12:32:07;2.57;;;0.80;;
23506;SDS011;11930;53.076;18.250;2023-04-03T12:35:01;3.20;;;1.00;;
23506;SDS011;11930;53.076;18.250;2023-04-03T12:44:15;3.13;;;1.33;;
23506;SDS011;11930;53.076;18.250;2023-04-03T12:46:22;2.10;;;0.90;;
23506;SDS011;11930;53.076;18.250;2023-04-03T12:48:51;5.13;;;2.10;;
23506;SDS011;11930;53.076;18.250;2023-04-03T12:54:04;2.47;;;0.93;;
23506;SDS011;11930;53.076;18.250;2023-04-03T12:56:38;3.07;;;1.23;;
23506;SDS011;11930;53.076;18.250;2023-04-03T12:59:21;3.17;;;1.17;;
23506;SDS011;11930;53.076;18.250;2023-04-03T13:01:53;2.90;;;0.90;;
23506;SDS011;11930;53.076;18.250;2023-04-03T13:04:21;2.00;;;1.00;;
23506;SDS011;11930;53.076;18.250;2023-04-03T13:06:48;2.63;;;1.23;;
23506;SDS011;11930;53.076;18.250;2023-04-03T13:09:19;5.20;;;2.07;;
23506;SDS011;11930;53.076;18.250;2023-04-03T13:11:48;6.87;;;2.67;;
23506;SDS011;11930;53.076;18.250;2023-04-03T13:14:18;5.50;;;1.87;;
23506;SDS011;11930;53.076;18.250;2023-04-03T13:17:10;2.60;;;0.90;;
23506;SDS011;11930;53.076;18.250;2023-04-03T13:19:53;1.67;;;0.67;;
23506;SDS011;11930;53.076;18.250;2023-04-03T13:22:28;5.13;;;1.20;;
23506;SDS011;11930;53.076;18.250;2023-04-03T13:25:05;3.00;;;0.90;;
23506;SDS011;11930;53.076;18.250;2023-04-03T13:27:33;5.70;;;1.40;;
23506;SDS011;11930;53.076;18.250;2023-04-03T13:30:01;2.97;;;1.40;;
23506;SDS011;11930;53.076;18.250;2023-04-03T13:32:30;1.67;;;0.80;;
23506;SDS011;11930;53.076;18.250;2023-04-03T13:34:57;2.77;;;1.43;;
23506;SDS011;11930;53.076;18.250;2023-04-03T13:37:26;4.63;;;1.60;;
23506;SDS011;11930;53.076;18.250;2023-04-03T13:39:59;2.13;;;0.80;;
23506;SDS011;11930;53.076;18.250;2023-04-03T13:42:27;4.57;;;1.20;;
23506;SDS011;11930;53.076;18.250;2023-04-03T13:47:46;1.93;;;0.60;;
23506;SDS011;11930;53.076;18.250;2023-04-03T13:50:24;1.70;;;0.70;;
23506;SDS011;11930;53.076;18.250;2023-04-03T13:52:54;2.27;;;0.93;;
23506;SDS011;11930;53.076;18.250;2023-04-03T13:55:30;3.90;;;1.73;;
23506;SDS011;11930;53.076;18.250;2023-04-03T13:58:00;3.00;;;1.40;;
23506;SDS011;11930;53.076;18.250;2023-04-03T14:00:31;2.23;;;0.90;;
23506;SDS011;11930;53.076;18.250;2023-04-03T14:02:57;4.53;;;2.03;;
23506;SDS011;11930;53.076;18.250;2023-04-03T14:05:24;3.33;;;1.10;;
23506;SDS011;11930;53.076;18.250;2023-04-03T14:07:52;12.83;;;3.40;;
23506;SDS011;11930;53.076;18.250;2023-04-03T14:10:19;3.03;;;1.00;;
23506;SDS011;11930;53.076;18.250;2023-04-03T14:12:46;1.87;;;0.80;;
23506;SDS011;11930;53.076;18.250;2023-04-03T14:15:30;2.77;;;1.27;;
23506;SDS011;11930;53.076;18.250;2023-04-03T14:17:57;2.53;;;1.13;;
23506;SDS011;11930;53.076;18.250;2023-04-03T14:20:24;3.00;;;1.10;;
23506;SDS011;11930;53.076;18.250;2023-04-03T14:22:52;2.27;;;0.97;;
23506;SDS011;11930;53.076;18.250;2023-04-03T14:25:19;4.70;;;2.03;;
23506;SDS011;11930;53.076;18.250;2023-04-03T14:27:48;2.90;;;1.03;;
23506;SDS011;11930;53.076;18.250;2023-04-03T14:30:20;4.43;;;1.00;;
23506;SDS011;11930;53.076;18.250;2023-04-03T14:32:52;2.43;;;1.10;;
23506;SDS011;11930;53.076;18.250;2023-04-03T14:35:19;5.37;;;2.20;;
23506;SDS011;11930;53.076;18.250;2023-04-03T14:37:46;3.90;;;1.30;;
23506;SDS011;11930;53.076;18.250;2023-04-03T14:40:22;3.63;;;1.10;;
23506;SDS011;11930;53.076;18.250;2023-04-03T14:42:50;5.67;;;1.67;;
23506;SDS011;11930;53.076;18.250;2023-04-03T14:45:17;3.43;;;1.70;;
23506;SDS011;11930;53.076;18.250;2023-04-03T14:47:47;4.90;;;1.10;;
23506;SDS011;11930;53.076;18.250;2023-04-03T14:50:17;3.00;;;1.30;;
23506;SDS011;11930;53.076;18.250;2023-04-03T14:52:47;3.72;;;1.40;;
23506;SDS011;11930;53.076;18.250;2023-04-03T14:55:15;4.13;;;1.57;;
23506;SDS011;11930;53.076;18.250;2023-04-03T14:57:42;2.33;;;1.00;;
23506;SDS011;11930;53.076;18.250;2023-04-03T15:00:12;4.50;;;1.10;;
23506;SDS011;11930;53.076;18.250;2023-04-03T15:02:43;3.50;;;1.20;;
23506;SDS011;11930;53.076;18.250;2023-04-03T15:05:10;2.87;;;1.20;;
23506;SDS011;11930;53.076;18.250;2023-04-03T15:07:37;8.50;;;2.90;;
23506;SDS011;11930;53.076;18.250;2023-04-03T15:12:41;3.23;;;1.13;;
23506;SDS011;11930;53.076;18.250;2023-04-03T15:15:07;3.80;;;1.10;;
23506;SDS011;11930;53.076;18.250;2023-04-03T15:17:34;2.33;;;1.00;;
23506;SDS011;11930;53.076;18.250;2023-04-03T15:20:01;3.80;;;1.00;;
23506;SDS011;11930;53.076;18.250;2023-04-03T15:22:28;2.57;;;1.23;;
23506;SDS011;11930;53.076;18.250;2023-04-03T15:24:54;2.30;;;1.03;;
23506;SDS011;11930;53.076;18.250;2023-04-03T15:27:20;3.10;;;1.20;;
23506;SDS011;11930;53.076;18.250;2023-04-03T15:29:46;6.40;;;2.07;;
23506;SDS011;11930;53.076;18.250;2023-04-03T15:32:12;2.97;;;1.30;;
23506;SDS011;11930;53.076;18.250;2023-04-03T15:34:39;3.03;;;1.07;;
23506;SDS011;11930;53.076;18.250;2023-04-03T15:37:05;4.13;;;1.30;;
23506;SDS011;11930;53.076;18.250;2023-04-03T15:39:32;2.90;;;1.23;;
23506;SDS011;11930;53.076;18.250;2023-04-03T15:41:58;2.60;;;1.10;;
23506;SDS011;11930;53.076;18.250;2023-04-03T15:44:32;9.07;;;1.27;;
23506;SDS011;11930;53.076;18.250;2023-04-03T15:47:01;7.63;;;1.37;;
23506;SDS011;11930;53.076;18.250;2023-04-03T15:49:28;4.20;;;1.50;;
23506;SDS011;11930;53.076;18.250;2023-04-03T15:51:54;4.03;;;1.37;;
23506;SDS011;11930;53.076;18.250;2023-04-03T15:54:20;2.37;;;1.13;;
23506;SDS011;11930;53.076;18.250;2023-04-03T15:56:46;2.90;;;1.13;;
23506;SDS011;11930;53.076;18.250;2023-04-03T15:59:12;2.87;;;0.90;;
23506;SDS011;11930;53.076;18.250;2023-04-03T16:01:38;2.77;;;1.30;;
23506;SDS011;11930;53.076;18.250;2023-04-03T16:04:07;5.80;;;2.40;;
23506;SDS011;11930;53.076;18.250;2023-04-03T16:06:33;3.47;;;1.20;;
23506;SDS011;11930;53.076;18.250;2023-04-03T16:09:00;2.50;;;1.40;;
23506;SDS011;11930;53.076;18.250;2023-04-03T16:11:26;2.67;;;1.20;;
23506;SDS011;11930;53.076;18.250;2023-04-03T16:13:53;2.73;;;1.10;;
23506;SDS011;11930;53.076;18.250;2023-04-03T16:16:19;1.10;;;0.97;;
23506;SDS011;11930;53.076;18.250;2023-04-03T16:18:47;2.20;;;1.10;;
23506;SDS011;11930;53.076;18.250;2023-04-03T16:21:13;6.37;;;2.50;;
23506;SDS011;11930;53.076;18.250;2023-04-03T16:23:41;4.83;;;1.30;;
23506;SDS011;11930;53.076;18.250;2023-04-03T16:26:08;4.00;;;1.20;;
23506;SDS011;11930;53.076;18.250;2023-04-03T16:28:35;3.47;;;1.27;;
23506;SDS011;11930;53.076;18.250;2023-04-03T16:31:01;13.03;;;1.70;;
23506;SDS011;11930;53.076;18.250;2023-04-03T16:33:28;5.50;;;1.30;;
23506;SDS011;11930;53.076;18.250;2023-04-03T16:35:55;4.27;;;1.37;;
23506;SDS011;11930;53.076;18.250;2023-04-03T16:38:21;3.97;;;1.20;;
23506;SDS011;11930;53.076;18.250;2023-04-03T16:40:48;3.63;;;1.60;;
23506;SDS011;11930;53.076;18.250;2023-04-03T16:43:15;2.33;;;0.90;;
23506;SDS011;11930;53.076;18.250;2023-04-03T16:45:42;4.97;;;1.67;;
23506;SDS011;11930;53.076;18.250;2023-04-03T16:48:08;8.37;;;2.90;;
23506;SDS011;11930;53.076;18.250;2023-04-03T16:50:34;10.13;;;2.67;;
23506;SDS011;11930;53.076;18.250;2023-04-03T16:53:00;4.23;;;1.47;;
23506;SDS011;11930;53.076;18.250;2023-04-03T16:55:28;5.40;;;1.90;;
23506;SDS011;11930;53.076;18.250;2023-04-03T16:57:54;3.20;;;1.50;;
23506;SDS011;11930;53.076;18.250;2023-04-03T17:00:21;8.67;;;2.87;;
23506;SDS011;11930;53.076;18.250;2023-04-03T17:02:47;3.57;;;1.27;;
23506;SDS011;11930;53.076;18.250;2023-04-03T17:05:13;3.60;;;1.43;;